createdAt,value
2023-02-04T00:00:20.146Z,99.99
2023-02-04T00:01:20.188Z,99.99
2023-02-04T00:02:20.192Z,99.99
2023-02-04T00:03:20.184Z,99.99
2023-02-04T00:04:20.134Z,99.99
2023-02-04T00:05:20.174Z,99.99
2023-02-04T00:06:22.995Z,99.99
2023-02-04T00:07:20.145Z,99.99
2023-02-04T00:08:20.170Z,99.99
2023-02-04T00:09:20.165Z,99.99
2023-02-04T00:10:20.141Z,99.99
2023-02-04T00:11:20.196Z,99.99
2023-02-04T00:12:20.154Z,99.99
2023-02-04T00:13:20.141Z,99.99
2023-02-04T00:14:20.146Z,99.99
2023-02-04T00:15:20.187Z,99.99
2023-02-04T00:16:20.346Z,99.99
2023-02-04T00:17:23.029Z,99.99
2023-02-04T00:18:22.019Z,99.99
2023-02-04T00:19:20.158Z,99.99
2023-02-04T00:20:20.179Z,99.99
2023-02-04T00:21:20.229Z,99.99
2023-02-04T00:22:20.158Z,99.99
2023-02-04T00:23:21.154Z,99.99
2023-02-04T00:24:20.160Z,99.99
2023-02-04T00:25:20.154Z,99.99
2023-02-04T00:26:20.220Z,99.99
2023-02-04T00:27:20.212Z,99.99
2023-02-04T00:28:23.094Z,99.99
2023-02-04T00:29:20.163Z,99.99
2023-02-04T00:30:20.161Z,99.99
2023-02-04T00:31:20.425Z,99.99
2023-02-04T00:32:20.369Z,99.99
2023-02-04T00:33:20.204Z,99.99
2023-02-04T00:34:20.479Z,99.99
2023-02-04T00:35:20.174Z,99.99
2023-02-04T00:36:20.193Z,99.99
2023-02-04T00:37:20.170Z,99.99
2023-02-04T00:38:20.179Z,99.99
2023-02-04T00:39:20.194Z,99.99
2023-02-04T00:40:20.192Z,99.99
2023-02-04T00:41:20.216Z,99.99
2023-02-04T00:42:20.189Z,99.99
2023-02-04T00:43:20.218Z,99.99
2023-02-04T00:44:23.248Z,99.99
2023-02-04T00:45:20.230Z,99.99
2023-02-04T00:46:20.231Z,99.99
2023-02-04T00:47:20.260Z,99.99
2023-02-04T00:48:20.211Z,99.99
2023-02-04T00:49:20.250Z,99.99
2023-02-04T00:50:20.217Z,99.99
2023-02-04T00:51:20.223Z,99.99
2023-02-04T00:52:20.194Z,99.99
2023-02-04T00:53:20.204Z,99.99
2023-02-04T00:54:20.223Z,99.99
2023-02-04T00:55:23.089Z,99.99
2023-02-04T00:56:20.242Z,99.99
2023-02-04T00:57:20.213Z,99.99
2023-02-04T00:58:20.212Z,99.99
2023-02-04T00:59:20.210Z,99.99
2023-02-04T01:00:20.217Z,99.99
2023-02-04T01:01:20.341Z,99.99
2023-02-04T01:02:21.048Z,99.99
2023-02-04T01:03:20.268Z,99.99
2023-02-04T01:04:20.376Z,99.99
2023-02-04T01:05:20.300Z,99.99
2023-02-04T01:06:21.953Z,99.99
2023-02-04T01:07:20.331Z,99.99
2023-02-04T01:08:20.236Z,99.99
2023-02-04T01:09:20.211Z,99.99
2023-02-04T01:10:20.435Z,99.99
2023-02-04T01:11:20.248Z,99.99
2023-02-04T01:12:20.375Z,99.99
2023-02-04T01:13:20.241Z,99.99
2023-02-04T01:14:20.235Z,99.99
2023-02-04T01:15:20.230Z,99.99
2023-02-04T01:16:20.375Z,99.99
2023-02-04T01:17:20.249Z,99.99
2023-02-04T01:18:20.244Z,99.99
2023-02-04T01:19:20.262Z,99.99
2023-02-04T01:20:20.228Z,99.99
2023-02-04T01:21:20.304Z,99.99
2023-02-04T01:22:20.243Z,99.99
2023-02-04T01:23:20.260Z,99.99
2023-02-04T01:24:20.256Z,99.99
2023-02-04T01:25:21.274Z,99.99
2023-02-04T01:26:20.316Z,99.99
2023-02-04T01:27:20.259Z,99.99
2023-02-04T01:28:20.373Z,99.99
2023-02-04T01:29:20.270Z,99.99
2023-02-04T01:30:20.277Z,99.99
2023-02-04T01:31:20.808Z,99.99
2023-02-04T01:32:20.272Z,99.99
2023-02-04T01:33:20.255Z,99.99
2023-02-04T01:34:20.268Z,99.99
2023-02-04T01:35:20.322Z,99.99
2023-02-04T01:36:20.252Z,99.99
2023-02-04T01:37:20.289Z,99.99
2023-02-04T01:38:20.273Z,99.99
2023-02-04T01:39:20.269Z,99.99
2023-02-04T01:40:20.274Z,99.99
2023-02-04T01:41:20.275Z,99.99
2023-02-04T01:42:20.263Z,99.99
2023-02-04T01:43:20.282Z,99.99
2023-02-04T01:44:20.266Z,99.99
2023-02-04T01:45:23.046Z,99.99
2023-02-04T01:46:20.382Z,99.99
2023-02-04T01:47:20.290Z,99.99
2023-02-04T01:48:20.379Z,99.99
2023-02-04T01:49:23.318Z,99.99
2023-02-04T01:50:20.296Z,99.99
2023-02-04T01:51:20.307Z,99.99
2023-02-04T01:52:20.276Z,99.99
2023-02-04T01:53:20.300Z,99.99
2023-02-04T01:54:20.291Z,99.99
2023-02-04T01:55:20.298Z,99.99
2023-02-04T01:56:20.315Z,99.99
2023-02-04T01:57:20.277Z,99.99
2023-02-04T01:58:20.300Z,99.99
2023-02-04T01:59:20.288Z,99.99
2023-02-04T02:00:23.231Z,99.99
2023-02-04T02:01:20.402Z,99.99
2023-02-04T02:02:20.395Z,99.99
2023-02-04T02:03:20.309Z,99.99
2023-02-04T02:04:20.294Z,99.99
2023-02-04T02:05:20.333Z,99.99
2023-02-04T02:06:20.292Z,99.99
2023-02-04T02:07:20.322Z,99.99
2023-02-04T02:08:20.301Z,99.99
2023-02-04T02:09:20.331Z,99.99
2023-02-04T02:10:23.305Z,99.99
2023-02-04T02:11:23.177Z,99.99
2023-02-04T02:12:20.318Z,99.99
2023-02-04T02:13:20.304Z,99.99
2023-02-04T02:14:20.304Z,99.99
2023-02-04T02:15:20.300Z,99.99
2023-02-04T02:16:20.372Z,99.99
2023-02-04T02:17:20.328Z,99.99
2023-02-04T02:18:20.302Z,99.99
2023-02-04T02:19:20.325Z,99.99
2023-02-04T02:20:20.340Z,99.99
2023-02-04T02:21:20.157Z,99.99
2023-02-04T02:22:23.492Z,99.99
2023-02-04T02:23:20.346Z,99.99
2023-02-04T02:24:20.321Z,99.99
2023-02-04T02:25:20.348Z,99.99
2023-02-04T02:26:20.324Z,99.99
2023-02-04T02:27:20.352Z,99.99
2023-02-04T02:28:20.454Z,99.99
2023-02-04T02:29:20.340Z,99.99
2023-02-04T02:30:20.315Z,99.99
2023-02-04T02:31:20.634Z,99.99
2023-02-04T02:32:20.345Z,99.99
2023-02-04T02:33:23.076Z,99.99
2023-02-04T02:34:20.763Z,99.99
2023-02-04T02:35:20.329Z,99.99
2023-02-04T02:36:20.337Z,99.99
2023-02-04T02:37:20.362Z,99.99
2023-02-04T02:38:20.364Z,99.99
2023-02-04T02:39:20.334Z,99.99
2023-02-04T02:40:20.352Z,99.99
2023-02-04T02:41:20.373Z,99.99
2023-02-04T02:42:20.362Z,99.99
2023-02-04T02:43:20.345Z,99.99
2023-02-04T02:44:23.140Z,99.99
2023-02-04T02:45:20.344Z,99.99
2023-02-04T02:46:20.406Z,99.99
2023-02-04T02:47:20.393Z,99.99
2023-02-04T02:48:20.358Z,99.99
2023-02-04T02:49:20.351Z,99.99
2023-02-04T02:50:20.338Z,99.99
2023-02-04T02:51:20.345Z,99.99
2023-02-04T02:52:20.369Z,99.99
2023-02-04T02:53:20.358Z,99.99
2023-02-04T02:54:20.397Z,99.99
2023-02-04T02:55:23.211Z,99.99
2023-02-04T02:56:20.345Z,99.99
2023-02-04T02:57:20.413Z,99.99
2023-02-04T02:58:20.356Z,99.99
2023-02-04T02:59:20.349Z,99.99
2023-02-04T03:00:20.354Z,99.99
2023-02-04T03:01:20.428Z,99.99
2023-02-04T03:02:20.411Z,99.99
2023-02-04T03:03:20.354Z,99.99
2023-02-04T03:04:20.394Z,99.99
2023-02-04T03:05:20.371Z,99.99
2023-02-04T03:06:20.399Z,99.99
2023-02-04T03:07:20.371Z,99.99
2023-02-04T03:08:20.391Z,99.99
2023-02-04T03:09:20.360Z,99.99
2023-02-04T03:10:20.410Z,99.99
2023-02-04T03:11:23.425Z,99.99
2023-02-04T03:12:20.401Z,99.99
2023-02-04T03:13:20.398Z,99.99
2023-02-04T03:14:20.361Z,99.99
2023-02-04T03:15:20.377Z,99.99
2023-02-04T03:16:20.378Z,99.99
2023-02-04T03:17:20.402Z,99.99
2023-02-04T03:18:20.388Z,99.99
2023-02-04T03:19:20.387Z,99.99
2023-02-04T03:20:20.400Z,99.99
2023-02-04T03:21:20.407Z,99.99
2023-02-04T03:22:21.981Z,99.99
2023-02-04T03:23:20.435Z,99.99
2023-02-04T03:24:20.436Z,99.99
2023-02-04T03:25:20.393Z,99.99
2023-02-04T03:26:20.564Z,99.99
2023-02-04T03:27:20.394Z,99.99
2023-02-04T03:28:20.456Z,99.99
2023-02-04T03:29:20.414Z,99.99
2023-02-04T03:30:20.391Z,99.99
2023-02-04T03:31:20.560Z,99.99
2023-02-04T03:32:20.410Z,99.99
2023-02-04T03:33:23.184Z,99.99
2023-02-04T03:34:20.395Z,99.99
2023-02-04T03:35:20.408Z,99.99
2023-02-04T03:36:20.401Z,99.99
2023-02-04T03:37:20.431Z,99.99
2023-02-04T03:38:22.293Z,99.99
2023-02-04T03:39:20.397Z,99.99
2023-02-04T03:40:20.414Z,99.99
2023-02-04T03:41:20.414Z,99.99
2023-02-04T03:42:20.480Z,99.99
2023-02-04T03:43:20.396Z,99.99
2023-02-04T03:44:20.412Z,99.99
2023-02-04T03:45:20.446Z,99.99
2023-02-04T03:46:20.456Z,99.99
2023-02-04T03:47:20.437Z,99.99
2023-02-04T03:48:20.416Z,99.99
2023-02-04T03:49:20.424Z,99.99
2023-02-04T03:50:20.418Z,99.99
2023-02-04T03:51:20.413Z,99.99
2023-02-04T03:52:20.457Z,99.99
2023-02-04T03:53:20.434Z,99.99
2023-02-04T03:54:20.430Z,99.99
2023-02-04T03:55:20.433Z,99.99
2023-02-04T03:56:20.419Z,99.99
2023-02-04T03:57:20.439Z,99.99
2023-02-04T03:58:20.446Z,99.99
2023-02-04T03:59:20.421Z,99.99
2023-02-04T04:00:20.433Z,99.99
2023-02-04T04:01:20.556Z,99.99
2023-02-04T04:02:20.454Z,99.99
2023-02-04T04:03:20.432Z,99.99
2023-02-04T04:04:20.433Z,99.99
2023-02-04T04:05:20.452Z,99.99
2023-02-04T04:06:20.462Z,99.99
2023-02-04T04:07:20.446Z,99.99
2023-02-04T04:08:20.423Z,99.99
2023-02-04T04:09:20.443Z,99.99
2023-02-04T04:10:20.434Z,99.99
2023-02-04T04:11:20.431Z,99.99
2023-02-04T04:12:20.463Z,99.99
2023-02-04T04:13:20.434Z,99.99
2023-02-04T04:14:20.502Z,99.99
2023-02-04T04:15:20.433Z,99.99
2023-02-04T04:16:23.516Z,99.99
2023-02-04T04:17:20.467Z,99.99
2023-02-04T04:18:20.447Z,99.99
2023-02-04T04:19:20.453Z,99.99
2023-02-04T04:20:20.454Z,99.99
2023-02-04T04:21:20.462Z,99.99
2023-02-04T04:22:20.506Z,99.99
2023-02-04T04:23:20.461Z,99.99
2023-02-04T04:24:20.453Z,99.99
2023-02-04T04:25:20.452Z,99.99
2023-02-04T04:26:20.528Z,99.99
2023-02-04T04:27:23.391Z,99.99
2023-02-04T04:28:20.542Z,99.99
2023-02-04T04:29:20.456Z,99.99
2023-02-04T04:30:20.474Z,99.99
2023-02-04T04:31:20.791Z,99.99
2023-02-04T04:32:20.480Z,99.99
2023-02-04T04:33:20.467Z,99.99
2023-02-04T04:34:20.508Z,99.99
2023-02-04T04:35:20.683Z,99.99
2023-02-04T04:36:20.467Z,99.99
2023-02-04T04:37:20.472Z,99.99
2023-02-04T04:38:23.379Z,99.99
2023-02-04T04:39:20.472Z,99.99
2023-02-04T04:40:20.468Z,99.99
2023-02-04T04:41:20.467Z,99.99
2023-02-04T04:42:20.499Z,99.99
2023-02-04T04:43:20.473Z,99.99
2023-02-04T04:44:20.478Z,99.99
2023-02-04T04:45:20.466Z,99.99
2023-02-04T04:46:20.634Z,99.99
2023-02-04T04:47:20.508Z,99.99
2023-02-04T04:48:20.502Z,99.99
2023-02-04T04:49:23.296Z,99.99
2023-02-04T04:50:20.484Z,99.99
2023-02-04T04:51:20.496Z,99.99
2023-02-04T04:52:20.475Z,99.99
2023-02-04T04:53:20.484Z,99.99
2023-02-04T04:54:20.527Z,99.99
2023-02-04T04:55:20.492Z,99.99
2023-02-04T04:56:20.525Z,99.99
2023-02-04T04:57:20.496Z,99.99
2023-02-04T04:58:20.506Z,99.99
2023-02-04T04:59:20.483Z,99.99
2023-02-04T05:00:23.400Z,99.99
2023-02-04T05:01:20.687Z,99.99
2023-02-04T05:02:20.530Z,99.99
2023-02-04T05:03:20.495Z,99.99
2023-02-04T05:04:20.669Z,99.99
2023-02-04T05:05:20.528Z,99.99
2023-02-04T05:06:20.516Z,99.99
2023-02-04T05:07:20.507Z,99.99
2023-02-04T05:08:20.525Z,99.99
2023-02-04T05:09:20.498Z,99.99
2023-02-04T05:10:20.518Z,99.99
2023-02-04T05:11:23.599Z,99.99
2023-02-04T05:12:20.513Z,99.99
2023-02-04T05:13:20.532Z,99.99
2023-02-04T05:14:20.520Z,99.99
2023-02-04T05:15:20.509Z,99.99
2023-02-04T05:16:20.744Z,99.99
2023-02-04T05:17:20.535Z,99.99
2023-02-04T05:18:20.539Z,99.99
2023-02-04T05:19:20.519Z,99.99
2023-02-04T05:20:20.548Z,99.99
2023-02-04T05:21:20.525Z,99.99
2023-02-04T05:22:23.558Z,99.99
2023-02-04T05:23:20.545Z,99.99
2023-02-04T05:24:20.531Z,99.99
2023-02-04T05:25:20.527Z,99.99
2023-02-04T05:26:32.124Z,99.99
2023-02-04T05:27:20.557Z,99.99
2023-02-04T05:28:20.730Z,99.99
2023-02-04T05:29:20.552Z,99.99
2023-02-04T05:30:20.540Z,99.99
2023-02-04T05:31:20.888Z,99.99
2023-02-04T05:32:20.531Z,99.99
2023-02-04T05:33:20.540Z,99.99
2023-02-04T05:34:20.565Z,99.99
2023-02-04T05:35:20.553Z,99.99
2023-02-04T05:36:20.594Z,99.99
2023-02-04T05:37:20.554Z,99.99
2023-02-04T05:38:20.747Z,99.99
2023-02-04T05:39:20.554Z,99.99
2023-02-04T05:40:20.557Z,99.99
2023-02-04T05:41:20.556Z,99.99
2023-02-04T05:42:20.570Z,99.99
2023-02-04T05:43:20.542Z,99.99
2023-02-04T05:44:20.558Z,99.99
2023-02-04T05:45:20.567Z,99.99
2023-02-04T05:46:20.608Z,99.99
2023-02-04T05:47:20.624Z,99.99
2023-02-04T05:48:20.577Z,99.99
2023-02-04T05:49:23.638Z,99.99
2023-02-04T05:50:20.606Z,99.99
2023-02-04T05:51:20.570Z,99.99
2023-02-04T05:52:20.585Z,99.99
2023-02-04T05:53:20.578Z,99.99
2023-02-04T05:54:20.613Z,99.99
2023-02-04T05:55:20.574Z,99.99
2023-02-04T05:56:20.564Z,99.99
2023-02-04T05:57:20.571Z,99.99
2023-02-04T05:58:20.577Z,99.99
2023-02-04T05:59:20.568Z,99.99
2023-02-04T06:00:23.631Z,99.99
2023-02-04T06:01:20.638Z,99.99
2023-02-04T06:02:20.572Z,99.99
2023-02-04T06:03:20.653Z,99.99
2023-02-04T06:04:20.915Z,99.99
2023-02-04T06:05:20.609Z,99.99
2023-02-04T06:06:20.594Z,99.99
2023-02-04T06:07:20.592Z,99.99
2023-02-04T06:08:20.608Z,99.99
2023-02-04T06:09:20.593Z,99.99
2023-02-04T06:10:20.593Z,99.99
2023-02-04T06:11:20.602Z,99.99
2023-02-04T06:12:20.596Z,99.99
2023-02-04T06:13:20.588Z,99.99
2023-02-04T06:14:20.593Z,99.99
2023-02-04T06:15:20.589Z,99.99
2023-02-04T06:16:20.692Z,99.99
2023-02-04T06:17:20.770Z,99.99
2023-02-04T06:18:20.606Z,99.99
2023-02-04T06:19:20.599Z,99.99
2023-02-04T06:20:20.590Z,99.99
2023-02-04T06:21:20.642Z,99.99
2023-02-04T06:22:20.616Z,99.99
2023-02-04T06:23:20.628Z,99.99
2023-02-04T06:24:20.638Z,99.99
2023-02-04T06:25:20.611Z,99.99
2023-02-04T06:26:20.702Z,99.99
2023-02-04T06:27:20.623Z,99.99
2023-02-04T06:28:20.704Z,99.99
2023-02-04T06:29:20.656Z,99.99
2023-02-04T06:30:20.684Z,99.99
2023-02-04T06:31:22.066Z,99.99
2023-02-04T06:32:20.646Z,99.99
2023-02-04T06:33:20.645Z,99.99
2023-02-04T06:34:20.629Z,99.99
2023-02-04T06:35:20.620Z,99.99
2023-02-04T06:36:20.628Z,99.99
2023-02-04T06:37:21.065Z,99.99
2023-02-04T06:38:20.642Z,99.99
2023-02-04T06:39:20.630Z,99.99
2023-02-04T06:40:20.656Z,99.99
2023-02-04T06:41:20.671Z,99.99
2023-02-04T06:42:20.683Z,99.99
2023-02-04T06:43:24.040Z,99.99
2023-02-04T06:44:20.625Z,99.99
2023-02-04T06:45:20.636Z,99.99
2023-02-04T06:46:20.754Z,99.99
2023-02-04T06:47:20.647Z,99.99
2023-02-04T06:48:20.690Z,99.99
2023-02-04T06:49:20.645Z,99.99
2023-02-04T06:50:20.643Z,99.99
2023-02-04T06:51:20.643Z,99.99
2023-02-04T06:52:20.650Z,99.99
2023-02-04T06:53:20.675Z,99.99
2023-02-04T06:54:23.673Z,99.99
2023-02-04T06:55:20.702Z,99.99
2023-02-04T06:56:20.695Z,99.99
2023-02-04T06:57:20.649Z,99.99
2023-02-04T06:58:20.672Z,99.99
2023-02-04T06:59:20.659Z,99.99
2023-02-04T07:00:20.656Z,99.99
2023-02-04T07:01:20.764Z,99.99
2023-02-04T07:02:20.735Z,99.99
2023-02-04T07:03:21.726Z,99.99
2023-02-04T07:04:20.681Z,99.99
2023-02-04T07:05:23.741Z,99.99
2023-02-04T07:06:20.676Z,99.99
2023-02-04T07:07:20.674Z,99.99
2023-02-04T07:08:20.683Z,99.99
2023-02-04T07:09:20.717Z,99.99
2023-02-04T07:10:20.668Z,99.99
2023-02-04T07:11:20.681Z,99.99
2023-02-04T07:12:20.719Z,99.99
2023-02-04T07:13:20.698Z,99.99
2023-02-04T07:14:20.717Z,99.99
2023-02-04T07:15:20.708Z,99.99
2023-02-04T07:16:23.822Z,99.99
2023-02-04T07:17:20.695Z,99.99
2023-02-04T07:18:20.710Z,99.99
2023-02-04T07:19:23.170Z,99.99
2023-02-04T07:20:20.690Z,99.99
2023-02-04T07:21:20.728Z,99.99
2023-02-04T07:22:20.706Z,99.99
2023-02-04T07:23:20.730Z,99.99
2023-02-04T07:24:20.710Z,99.99
2023-02-04T07:25:20.742Z,99.99
2023-02-04T07:26:20.701Z,99.99
2023-02-04T07:27:23.713Z,99.99
2023-02-04T07:28:20.846Z,99.99
2023-02-04T07:29:27.697Z,99.99
2023-02-04T07:30:20.739Z,99.99
2023-02-04T07:31:20.930Z,99.99
2023-02-04T07:32:20.725Z,99.99
2023-02-04T07:33:20.722Z,99.99
2023-02-04T07:34:20.728Z,99.99
2023-02-04T07:35:20.734Z,99.99
2023-02-04T07:36:20.735Z,99.99
2023-02-04T07:37:20.710Z,99.99
2023-02-04T07:38:23.809Z,99.99
2023-02-04T07:39:20.724Z,99.99
2023-02-04T07:40:20.733Z,99.99
2023-02-04T07:41:21.084Z,99.99
2023-02-04T07:42:20.766Z,99.99
2023-02-04T07:43:20.755Z,99.99
2023-02-04T07:44:20.756Z,99.99
2023-02-04T07:45:20.732Z,99.99
2023-02-04T07:46:20.850Z,99.99
2023-02-04T07:47:20.746Z,99.99
2023-02-04T07:48:20.738Z,99.99
2023-02-04T07:49:20.798Z,99.99
2023-02-04T07:50:21.768Z,99.99
2023-02-04T07:51:20.739Z,99.99
2023-02-04T07:52:20.749Z,99.99
2023-02-04T07:53:20.742Z,99.99
2023-02-04T07:54:20.755Z,99.99
2023-02-04T07:55:20.774Z,99.99
2023-02-04T07:56:20.733Z,99.99
2023-02-04T07:57:22.694Z,99.99
2023-02-04T07:58:20.749Z,99.99
2023-02-04T07:59:20.784Z,99.99
2023-02-04T08:00:20.776Z,99.99
2023-02-04T08:01:20.812Z,99.99
2023-02-04T08:02:20.775Z,99.99
2023-02-04T08:03:20.752Z,99.99
2023-02-04T08:04:20.769Z,99.99
2023-02-04T08:05:23.543Z,99.99
2023-02-04T08:06:20.790Z,99.99
2023-02-04T08:07:20.750Z,99.99
2023-02-04T08:08:20.759Z,99.99
2023-02-04T08:09:20.782Z,99.99
2023-02-04T08:10:20.753Z,99.99
2023-02-04T08:11:20.750Z,99.99
2023-02-04T08:12:21.760Z,99.99
2023-02-04T08:13:20.781Z,99.99
2023-02-04T08:14:20.778Z,99.99
2023-02-04T08:15:20.757Z,99.99
2023-02-04T08:16:23.882Z,99.99
2023-02-04T08:17:20.769Z,99.99
2023-02-04T08:18:20.774Z,99.99
2023-02-04T08:19:20.785Z,99.99
2023-02-04T08:20:20.781Z,99.99
2023-02-04T08:21:21.928Z,99.99
2023-02-04T08:22:20.807Z,99.99
2023-02-04T08:23:20.798Z,99.99
2023-02-04T08:24:20.821Z,99.99
2023-02-04T08:25:20.789Z,99.99
2023-02-04T08:26:20.785Z,99.99
2023-02-04T08:27:23.875Z,99.99
2023-02-04T08:28:20.914Z,99.99
2023-02-04T08:29:20.846Z,99.99
2023-02-04T08:30:20.786Z,99.99
2023-02-04T08:31:21.119Z,99.99
2023-02-04T08:32:20.799Z,99.99
2023-02-04T08:33:20.790Z,99.99
2023-02-04T08:34:20.803Z,99.99
2023-02-04T08:35:20.791Z,99.99
2023-02-04T08:36:20.792Z,99.99
2023-02-04T08:37:20.783Z,99.99
2023-02-04T08:38:20.955Z,99.99
2023-02-04T08:39:20.829Z,99.99
2023-02-04T08:40:22.781Z,99.99
2023-02-04T08:41:20.794Z,99.99
2023-02-04T08:42:20.805Z,99.99
2023-02-04T08:43:20.801Z,99.99
2023-02-04T08:44:20.838Z,99.99
2023-02-04T08:45:20.920Z,99.99
2023-02-04T08:46:20.924Z,99.99
2023-02-04T08:47:20.815Z,99.99
2023-02-04T08:48:20.851Z,99.99
2023-02-04T08:49:20.935Z,99.99
2023-02-04T08:50:20.818Z,99.99
2023-02-04T08:51:20.821Z,99.99
2023-02-04T08:52:20.837Z,99.99
2023-02-04T08:53:20.829Z,99.99
2023-02-04T08:54:20.870Z,99.99
2023-02-04T08:55:20.849Z,99.99
2023-02-04T08:56:20.853Z,99.99
2023-02-04T08:57:20.841Z,99.99
2023-02-04T08:58:20.859Z,99.99
2023-02-04T08:59:20.867Z,99.99
2023-02-04T09:00:21.895Z,99.99
2023-02-04T09:01:21.018Z,99.99
2023-02-04T09:02:20.999Z,99.99
2023-02-04T09:03:20.858Z,99.99
2023-02-04T09:04:20.899Z,99.99
2023-02-04T09:05:20.867Z,99.99
2023-02-04T09:06:20.849Z,99.99
2023-02-04T09:07:20.891Z,99.99
2023-02-04T09:08:20.913Z,99.99
2023-02-04T09:09:26.356Z,99.99
2023-02-04T09:10:23.793Z,99.99
2023-02-04T09:11:20.897Z,99.99
2023-02-04T09:12:20.921Z,99.99
2023-02-04T09:13:20.905Z,99.99
2023-02-04T09:14:20.910Z,99.99
2023-02-04T09:15:20.877Z,99.99
2023-02-04T09:16:21.115Z,99.99
2023-02-04T09:17:20.904Z,99.99
2023-02-04T09:18:20.911Z,99.99
2023-02-04T09:19:20.908Z,99.99
2023-02-04T09:20:20.910Z,99.99
2023-02-04T09:21:23.979Z,99.99
2023-02-04T09:22:20.892Z,99.99
2023-02-04T09:23:20.897Z,99.99
2023-02-04T09:24:20.931Z,99.99
2023-02-04T09:25:20.908Z,99.99
2023-02-04T09:26:20.893Z,99.99
2023-02-04T09:27:20.907Z,99.99
2023-02-04T09:28:21.034Z,99.99
2023-02-04T09:29:20.916Z,99.99
2023-02-04T09:30:20.928Z,99.99
2023-02-04T09:31:21.217Z,99.99
2023-02-04T09:32:23.963Z,99.99
2023-02-04T09:33:20.908Z,99.99
2023-02-04T09:34:20.938Z,99.99
2023-02-04T09:35:20.906Z,99.99
2023-02-04T09:36:20.941Z,99.99
2023-02-04T09:37:20.903Z,99.99
2023-02-04T09:38:20.905Z,99.99
2023-02-04T09:39:20.945Z,99.99
2023-02-04T09:40:20.950Z,99.99
2023-02-04T09:41:20.911Z,99.99
2023-02-04T09:42:20.922Z,99.99
2023-02-04T09:43:24.056Z,99.99
2023-02-04T09:44:20.965Z,99.99
2023-02-04T09:45:20.917Z,99.99
2023-02-04T09:46:20.936Z,99.99
2023-02-04T09:47:20.983Z,99.99
2023-02-04T09:48:20.944Z,99.99
2023-02-04T09:49:20.957Z,99.99
2023-02-04T09:50:20.931Z,99.99
2023-02-04T09:51:20.942Z,99.99
2023-02-04T09:52:20.975Z,99.99
2023-02-04T09:53:20.941Z,99.99
2023-02-04T09:54:23.898Z,99.99
2023-02-04T09:55:20.939Z,99.99
2023-02-04T09:56:20.956Z,99.99
2023-02-04T09:57:20.929Z,99.99
2023-02-04T09:58:20.948Z,99.99
2023-02-04T09:59:20.942Z,99.99
2023-02-04T10:00:20.994Z,99.99
2023-02-04T10:01:21.290Z,99.99
2023-02-04T10:02:20.954Z,99.99
2023-02-04T10:03:20.952Z,99.99
2023-02-04T10:04:24.288Z,99.99
2023-02-04T10:05:23.975Z,99.99
2023-02-04T10:06:20.945Z,99.99
2023-02-04T10:07:20.932Z,99.99
2023-02-04T10:08:20.978Z,99.99
2023-02-04T10:09:20.981Z,99.99
2023-02-04T10:10:20.983Z,99.99
2023-02-04T10:11:20.935Z,99.99
2023-02-04T10:12:20.951Z,99.99
2023-02-04T10:13:20.942Z,99.99
2023-02-04T10:14:20.987Z,99.99
2023-02-04T10:15:21.985Z,99.99
2023-02-04T10:16:21.013Z,99.99
2023-02-04T10:17:20.922Z,99.99
2023-02-04T10:18:20.942Z,99.99
2023-02-04T10:19:20.955Z,99.99
2023-02-04T10:20:21.040Z,99.99
2023-02-04T10:21:20.958Z,99.99
2023-02-04T10:22:20.943Z,99.99
2023-02-04T10:23:20.940Z,99.99
2023-02-04T10:24:21.004Z,99.99
2023-02-04T10:25:20.966Z,99.99
2023-02-04T10:26:20.966Z,99.99
2023-02-04T10:27:20.972Z,99.99
2023-02-04T10:28:21.018Z,99.99
2023-02-04T10:29:20.985Z,99.99
2023-02-04T10:30:20.972Z,99.99
2023-02-04T10:31:21.284Z,99.99
2023-02-04T10:32:20.959Z,99.99
2023-02-04T10:33:20.945Z,99.99
2023-02-04T10:34:21.569Z,99.99
2023-02-04T10:35:20.959Z,99.99
2023-02-04T10:36:20.979Z,99.99
2023-02-04T10:37:20.961Z,99.99
2023-02-04T10:38:20.952Z,99.99
2023-02-04T10:39:21.017Z,99.99
2023-02-04T10:40:21.047Z,99.99
2023-02-04T10:41:20.971Z,99.99
2023-02-04T10:42:20.997Z,99.99
2023-02-04T10:43:23.617Z,99.99
2023-02-04T10:44:20.985Z,99.99
2023-02-04T10:45:20.990Z,99.99
2023-02-04T10:46:21.090Z,99.99
2023-02-04T10:47:20.988Z,99.99
2023-02-04T10:48:20.981Z,99.99
2023-02-04T10:49:21.008Z,99.99
2023-02-04T10:50:21.096Z,99.99
2023-02-04T10:51:20.983Z,99.99
2023-02-04T10:52:21.006Z,99.99
2023-02-04T10:53:21.013Z,99.99
2023-02-04T10:54:22.122Z,99.99
2023-02-04T10:55:21.019Z,99.99
2023-02-04T10:56:21.019Z,99.99
2023-02-04T10:57:23.890Z,99.99
2023-02-04T10:58:21.016Z,99.99
2023-02-04T10:59:21.025Z,99.99
2023-02-04T11:00:21.132Z,99.99
2023-02-04T11:01:21.155Z,99.99
2023-02-04T11:02:20.993Z,99.99
2023-02-04T11:03:21.071Z,99.99
2023-02-04T11:04:21.030Z,99.99
2023-02-04T11:05:21.023Z,99.99
2023-02-04T11:06:21.002Z,99.99
2023-02-04T11:07:21.043Z,99.99
2023-02-04T11:08:21.022Z,99.99
2023-02-04T11:09:21.030Z,99.99
2023-02-04T11:10:21.019Z,99.99
2023-02-04T11:11:20.997Z,99.99
2023-02-04T11:12:21.035Z,99.99
2023-02-04T11:13:21.029Z,99.99
2023-02-04T11:14:21.042Z,99.99
2023-02-04T11:15:21.015Z,99.99
2023-02-04T11:16:21.346Z,99.99
2023-02-04T11:17:21.021Z,99.99
2023-02-04T11:18:21.145Z,99.99
2023-02-04T11:19:21.066Z,99.99
2023-02-04T11:20:21.027Z,99.99
2023-02-04T11:21:21.749Z,99.99
2023-02-04T11:22:21.024Z,99.99
2023-02-04T11:23:21.055Z,99.99
2023-02-04T11:24:21.082Z,99.99
2023-02-04T11:25:21.041Z,99.99
2023-02-04T11:26:21.061Z,99.99
2023-02-04T11:27:21.032Z,99.99
2023-02-04T11:28:21.123Z,99.99
2023-02-04T11:29:21.054Z,99.99
2023-02-04T11:30:21.055Z,99.99
2023-02-04T11:31:21.354Z,99.99
2023-02-04T11:32:26.654Z,99.99
2023-02-04T11:33:21.061Z,99.99
2023-02-04T11:34:21.069Z,99.99
2023-02-04T11:35:21.037Z,99.99
2023-02-04T11:36:21.031Z,99.99
2023-02-04T11:37:24.066Z,99.99
2023-02-04T11:38:21.070Z,99.99
2023-02-04T11:39:21.078Z,99.99
2023-02-04T11:40:21.099Z,99.99
2023-02-04T11:41:21.037Z,99.83
2023-02-04T11:42:21.044Z,99.64
2023-02-04T11:43:27.240Z,99.73
2023-02-04T11:44:21.084Z,99.99
2023-02-04T11:45:21.101Z,99.92
2023-02-04T11:46:21.153Z,99.64
2023-02-04T11:47:21.059Z,99.83
2023-02-04T11:48:23.849Z,99.64
2023-02-04T11:49:21.079Z,99.99
2023-02-04T11:50:21.061Z,99.99
2023-02-04T11:51:21.132Z,99.99
2023-02-04T11:52:21.062Z,99.99
2023-02-04T11:53:21.052Z,99.99
2023-02-04T11:54:21.098Z,99.99
2023-02-04T11:55:21.055Z,99.99
2023-02-04T11:56:21.103Z,99.99
2023-02-04T11:57:21.078Z,99.99
2023-02-04T11:58:21.070Z,99.99
2023-02-04T11:59:21.850Z,99.99
2023-02-04T12:00:21.105Z,99.99
2023-02-04T12:01:21.210Z,99.99
2023-02-04T12:02:21.164Z,99.99
2023-02-04T12:03:21.179Z,99.99
2023-02-04T12:04:21.106Z,99.99
2023-02-04T12:05:21.094Z,99.99
2023-02-04T12:06:21.084Z,99.99
2023-02-04T12:07:21.098Z,99.99
2023-02-04T12:08:21.130Z,99.99
2023-02-04T12:09:21.076Z,99.99
2023-02-04T12:10:23.865Z,99.99
2023-02-04T12:11:21.076Z,99.99
2023-02-04T12:12:21.104Z,99.99
2023-02-04T12:13:21.098Z,99.99
2023-02-04T12:14:21.122Z,99.99
2023-02-04T12:15:21.118Z,99.99
2023-02-04T12:16:21.239Z,99.99
2023-02-04T12:17:21.156Z,99.99
2023-02-04T12:18:21.099Z,99.99
2023-02-04T12:19:21.105Z,99.99
2023-02-04T12:20:21.102Z,99.99
2023-02-04T12:21:24.124Z,99.99
2023-02-04T12:22:21.105Z,99.99
2023-02-04T12:23:21.097Z,99.99
2023-02-04T12:24:21.105Z,99.99
2023-02-04T12:25:21.100Z,99.99
2023-02-04T12:26:21.107Z,99.99
2023-02-04T12:27:21.091Z,99.99
2023-02-04T12:28:21.355Z,99.99
2023-02-04T12:29:21.111Z,99.99
2023-02-04T12:30:21.112Z,99.99
2023-02-04T12:31:21.495Z,99.92
2023-02-04T12:32:23.933Z,99.83
2023-02-04T12:33:21.118Z,99.73
2023-02-04T12:34:21.199Z,99.35
2023-02-04T12:35:21.112Z,99.26
2023-02-04T12:36:21.118Z,99.26
2023-02-04T12:37:21.111Z,99.26
2023-02-04T12:38:22.779Z,99.16
2023-02-04T12:39:21.117Z,99.07
2023-02-04T12:40:21.146Z,99.26
2023-02-04T12:41:21.129Z,98.69
2023-02-04T12:42:21.106Z,98.97
2023-02-04T12:43:21.142Z,98.69
2023-02-04T12:44:21.151Z,98.97
2023-02-04T12:45:21.138Z,98.5
2023-02-04T12:46:21.322Z,98.4
2023-02-04T12:47:21.157Z,98.4
2023-02-04T12:48:21.311Z,98.97
2023-02-04T12:49:21.134Z,99.26
2023-02-04T12:50:21.123Z,99.83
2023-02-04T12:51:21.163Z,99.73
2023-02-04T12:52:21.171Z,99.07